sensor_id;sensor_type;location;lat;lon;timestamp;pressure;altitude;pressure_sealevel;temperature;humidity
77086;BME280;66014;53.134;18.006;2024-01-16T00:00:23;99244.14;;;-2.19;68.97
77086;BME280;66014;53.134;18.006;2024-01-16T00:03:11;99247.23;;;-2.21;69.08
77086;BME280;66014;53.134;18.006;2024-01-16T00:05:43;99254.04;;;-2.21;69.61
77086;BME280;66014;53.134;18.006;2024-01-16T00:08:10;99255.83;;;-2.20;69.79
77086;BME280;66014;53.134;18.006;2024-01-16T00:10:36;99259.00;;;-2.18;69.87
77086;BME280;66014;53.134;18.006;2024-01-16T00:13:03;99271.48;;;-2.16;70.01
77086;BME280;66014;53.134;18.006;2024-01-16T00:15:30;99278.16;;;-2.13;69.85
77086;BME280;66014;53.134;18.006;2024-01-16T00:17:56;99279.60;;;-2.09;69.77
77086;BME280;66014;53.134;18.006;2024-01-16T00:20:23;99289.98;;;-2.05;70.11
77086;BME280;66014;53.134;18.006;2024-01-16T00:22:52;99291.63;;;-2.00;70.11
77086;BME280;66014;53.134;18.006;2024-01-16T00:25:19;99300.27;;;-1.95;69.89
77086;BME280;66014;53.134;18.006;2024-01-16T00:27:46;99306.92;;;-1.92;70.02
77086;BME280;66014;53.134;18.006;2024-01-16T00:30:17;99310.36;;;-1.91;68.60
77086;BME280;66014;53.134;18.006;2024-01-16T00:32:44;99311.48;;;-1.94;68.45
77086;BME280;66014;53.134;18.006;2024-01-16T00:35:11;99312.86;;;-1.98;68.27
77086;BME280;66014;53.134;18.006;2024-01-16T00:37:39;99319.17;;;-2.03;68.12
77086;BME280;66014;53.134;18.006;2024-01-16T00:40:06;99317.50;;;-2.08;68.04
77086;BME280;66014;53.134;18.006;2024-01-16T00:42:35;99322.08;;;-2.14;67.36
77086;BME280;66014;53.134;18.006;2024-01-16T00:45:02;99326.42;;;-2.20;67.81
77086;BME280;66014;53.134;18.006;2024-01-16T00:47:29;99332.93;;;-2.25;68.14
77086;BME280;66014;53.134;18.006;2024-01-16T00:49:57;99340.89;;;-2.31;68.58
77086;BME280;66014;53.134;18.006;2024-01-16T00:52:26;99343.88;;;-2.35;68.86
77086;BME280;66014;53.134;18.006;2024-01-16T00:54:53;99345.11;;;-2.40;68.89
77086;BME280;66014;53.134;18.006;2024-01-16T00:57:20;99353.61;;;-2.44;69.09
77086;BME280;66014;53.134;18.006;2024-01-16T00:59:48;99358.54;;;-2.47;69.09
77086;BME280;66014;53.134;18.006;2024-01-16T01:02:15;99356.87;;;-2.49;69.29
77086;BME280;66014;53.134;18.006;2024-01-16T01:04:42;99360.23;;;-2.50;69.50
77086;BME280;66014;53.134;18.006;2024-01-16T01:07:12;99364.48;;;-2.51;69.48
77086;BME280;66014;53.134;18.006;2024-01-16T01:09:39;99370.92;;;-2.51;69.42
77086;BME280;66014;53.134;18.006;2024-01-16T01:12:06;99375.26;;;-2.51;68.76
77086;BME280;66014;53.134;18.006;2024-01-16T01:14:33;99381.01;;;-2.51;69.34
77086;BME280;66014;53.134;18.006;2024-01-16T01:16:59;99393.39;;;-2.52;69.42
77086;BME280;66014;53.134;18.006;2024-01-16T01:19:26;99399.20;;;-2.53;69.26
77086;BME280;66014;53.134;18.006;2024-01-16T01:21:52;99399.52;;;-2.55;68.96
77086;BME280;66014;53.134;18.006;2024-01-16T01:24:19;99402.17;;;-2.57;68.88
77086;BME280;66014;53.134;18.006;2024-01-16T01:26:45;99407.40;;;-2.60;69.12
77086;BME280;66014;53.134;18.006;2024-01-16T01:29:12;99409.83;;;-2.59;69.14
77086;BME280;66014;53.134;18.006;2024-01-16T01:31:38;99414.02;;;-2.62;69.04
77086;BME280;66014;53.134;18.006;2024-01-16T01:34:05;99416.38;;;-2.65;69.09
77086;BME280;66014;53.134;18.006;2024-01-16T01:36:31;99413.88;;;-2.69;69.13
77086;BME280;66014;53.134;18.006;2024-01-16T01:38:58;99410.65;;;-2.74;68.62
77086;BME280;66014;53.134;18.006;2024-01-16T01:41:24;99413.44;;;-2.78;68.31
77086;BME280;66014;53.134;18.006;2024-01-16T01:43:51;99420.36;;;-2.82;68.59
77086;BME280;66014;53.134;18.006;2024-01-16T01:46:19;99428.03;;;-2.85;68.82
77086;BME280;66014;53.134;18.006;2024-01-16T01:48:47;99429.89;;;-2.88;68.40
77086;BME280;66014;53.134;18.006;2024-01-16T01:51:17;99433.45;;;-2.92;68.41
77086;BME280;66014;53.134;18.006;2024-01-16T01:53:45;99431.75;;;-2.94;68.80
77086;BME280;66014;53.134;18.006;2024-01-16T01:56:18;99442.64;;;-2.96;68.47
77086;BME280;66014;53.134;18.006;2024-01-16T01:58:46;99445.23;;;-2.98;68.03
77086;BME280;66014;53.134;18.006;2024-01-16T02:01:17;99450.20;;;-2.99;67.54
77086;BME280;66014;53.134;18.006;2024-01-16T02:03:46;99456.13;;;-2.99;67.94
77086;BME280;66014;53.134;18.006;2024-01-16T02:06:14;99465.96;;;-2.99;68.30
77086;BME280;66014;53.134;18.006;2024-01-16T02:08:43;99469.15;;;-2.97;68.49
77086;BME280;66014;53.134;18.006;2024-01-16T02:11:10;99464.48;;;-2.95;68.58
77086;BME280;66014;53.134;18.006;2024-01-16T02:13:37;99469.57;;;-2.94;68.95
77086;BME280;66014;53.134;18.006;2024-01-16T02:16:04;99472.17;;;-2.92;68.86
77086;BME280;66014;53.134;18.006;2024-01-16T02:18:32;99476.84;;;-2.90;68.57
77086;BME280;66014;53.134;18.006;2024-01-16T02:21:05;99478.65;;;-2.88;68.34
77086;BME280;66014;53.134;18.006;2024-01-16T02:23:33;99487.08;;;-2.85;68.77
77086;BME280;66014;53.134;18.006;2024-01-16T02:25:59;99487.61;;;-2.83;68.65
77086;BME280;66014;53.134;18.006;2024-01-16T02:28:27;99488.71;;;-2.82;68.33
77086;BME280;66014;53.134;18.006;2024-01-16T02:30:54;99491.02;;;-2.82;68.25
77086;BME280;66014;53.134;18.006;2024-01-16T02:33:20;99504.04;;;-2.82;68.40
77086;BME280;66014;53.134;18.006;2024-01-16T02:35:47;99501.85;;;-2.83;67.99
77086;BME280;66014;53.134;18.006;2024-01-16T02:38:16;99507.57;;;-2.85;68.01
77086;BME280;66014;53.134;18.006;2024-01-16T02:40:42;99512.89;;;-2.87;68.13
77086;BME280;66014;53.134;18.006;2024-01-16T02:43:13;99524.23;;;-2.87;68.35
77086;BME280;66014;53.134;18.006;2024-01-16T02:45:40;99528.05;;;-2.88;68.55
77086;BME280;66014;53.134;18.006;2024-01-16T02:48:20;99532.25;;;-2.88;68.55
77086;BME280;66014;53.134;18.006;2024-01-16T02:50:46;99534.67;;;-2.88;68.48
77086;BME280;66014;53.134;18.006;2024-01-16T02:53:13;99543.39;;;-2.88;68.71
77086;BME280;66014;53.134;18.006;2024-01-16T02:55:39;99543.98;;;-2.89;68.34
77086;BME280;66014;53.134;18.006;2024-01-16T02:58:07;99545.42;;;-2.90;68.58
77086;BME280;66014;53.134;18.006;2024-01-16T03:00:34;99545.22;;;-2.89;68.61
77086;BME280;66014;53.134;18.006;2024-01-16T03:03:00;99546.39;;;-2.89;68.70
77086;BME280;66014;53.134;18.006;2024-01-16T03:05:27;99548.33;;;-2.89;68.67
77086;BME280;66014;53.134;18.006;2024-01-16T03:07:53;99553.70;;;-2.89;68.66
77086;BME280;66014;53.134;18.006;2024-01-16T03:10:20;99552.85;;;-2.89;68.72
77086;BME280;66014;53.134;18.006;2024-01-16T03:12:49;99550.64;;;-2.90;68.44
77086;BME280;66014;53.134;18.006;2024-01-16T03:15:16;99558.60;;;-2.90;68.70
77086;BME280;66014;53.134;18.006;2024-01-16T03:17:43;99559.30;;;-2.90;68.88
77086;BME280;66014;53.134;18.006;2024-01-16T03:20:10;99559.57;;;-2.91;68.63
77086;BME280;66014;53.134;18.006;2024-01-16T03:22:36;99561.55;;;-2.92;68.61
77086;BME280;66014;53.134;18.006;2024-01-16T03:25:03;99565.81;;;-2.93;68.43
77086;BME280;66014;53.134;18.006;2024-01-16T03:27:30;99564.26;;;-2.95;68.23
77086;BME280;66014;53.134;18.006;2024-01-16T03:29:57;99565.37;;;-2.96;68.48
77086;BME280;66014;53.134;18.006;2024-01-16T03:32:23;99568.88;;;-2.96;68.28
77086;BME280;66014;53.134;18.006;2024-01-16T03:34:50;99565.86;;;-2.98;68.29
77086;BME280;66014;53.134;18.006;2024-01-16T03:37:16;99567.36;;;-2.99;68.21
77086;BME280;66014;53.134;18.006;2024-01-16T03:39:43;99566.21;;;-3.00;68.47
77086;BME280;66014;53.134;18.006;2024-01-16T03:42:11;99568.33;;;-3.01;68.34
77086;BME280;66014;53.134;18.006;2024-01-16T03:44:42;99571.97;;;-3.03;68.38
77086;BME280;66014;53.134;18.006;2024-01-16T03:47:09;99573.31;;;-3.05;68.27
77086;BME280;66014;53.134;18.006;2024-01-16T03:49:35;99578.45;;;-3.08;68.36
77086;BME280;66014;53.134;18.006;2024-01-16T03:52:02;99581.88;;;-3.10;68.63
77086;BME280;66014;53.134;18.006;2024-01-16T03:54:28;99584.53;;;-3.12;68.76
77086;BME280;66014;53.134;18.006;2024-01-16T03:56:55;99588.75;;;-3.16;68.84
77086;BME280;66014;53.134;18.006;2024-01-16T03:59:22;99596.97;;;-3.18;68.46
77086;BME280;66014;53.134;18.006;2024-01-16T04:01:49;99601.15;;;-3.21;68.48
77086;BME280;66014;53.134;18.006;2024-01-16T04:04:16;99604.84;;;-3.24;68.55
77086;BME280;66014;53.134;18.006;2024-01-16T04:06:43;99603.72;;;-3.27;68.41
77086;BME280;66014;53.134;18.006;2024-01-16T04:09:09;99603.80;;;-3.31;68.51
77086;BME280;66014;53.134;18.006;2024-01-16T04:11:36;99602.15;;;-3.34;68.51
77086;BME280;66014;53.134;18.006;2024-01-16T04:14:02;99602.08;;;-3.37;68.76
77086;BME280;66014;53.134;18.006;2024-01-16T04:16:32;99604.05;;;-3.41;68.73
77086;BME280;66014;53.134;18.006;2024-01-16T04:18:58;99601.98;;;-3.43;68.69
77086;BME280;66014;53.134;18.006;2024-01-16T04:21:25;99603.14;;;-3.47;68.76
77086;BME280;66014;53.134;18.006;2024-01-16T04:23:54;99606.25;;;-3.51;68.87
77086;BME280;66014;53.134;18.006;2024-01-16T04:26:22;99610.02;;;-3.55;69.24
77086;BME280;66014;53.134;18.006;2024-01-16T04:28:52;99609.41;;;-3.59;69.29
77086;BME280;66014;53.134;18.006;2024-01-16T04:31:20;99615.94;;;-3.62;69.28
77086;BME280;66014;53.134;18.006;2024-01-16T04:33:48;99623.02;;;-3.66;69.35
77086;BME280;66014;53.134;18.006;2024-01-16T04:36:24;99626.30;;;-3.71;69.49
77086;BME280;66014;53.134;18.006;2024-01-16T04:39:30;99636.38;;;-3.76;69.66
77086;BME280;66014;53.134;18.006;2024-01-16T04:43:07;99641.11;;;-3.81;69.81
77086;BME280;66014;53.134;18.006;2024-01-16T04:45:41;99643.88;;;-3.86;69.81
77086;BME280;66014;53.134;18.006;2024-01-16T04:48:08;99635.64;;;-3.92;70.01
77086;BME280;66014;53.134;18.006;2024-01-16T04:50:35;99636.20;;;-3.95;70.39
77086;BME280;66014;53.134;18.006;2024-01-16T04:53:01;99634.86;;;-3.98;70.63
77086;BME280;66014;53.134;18.006;2024-01-16T04:55:29;99640.35;;;-4.00;70.89
77086;BME280;66014;53.134;18.006;2024-01-16T04:57:56;99645.73;;;-4.02;70.46
77086;BME280;66014;53.134;18.006;2024-01-16T05:00:23;99655.41;;;-4.04;70.34
77086;BME280;66014;53.134;18.006;2024-01-16T05:02:50;99652.46;;;-4.06;70.25
77086;BME280;66014;53.134;18.006;2024-01-16T05:05:19;99662.10;;;-4.08;70.60
77086;BME280;66014;53.134;18.006;2024-01-16T05:07:45;99669.66;;;-4.09;70.60
77086;BME280;66014;53.134;18.006;2024-01-16T05:10:12;99669.67;;;-4.12;70.53
77086;BME280;66014;53.134;18.006;2024-01-16T05:12:42;99674.25;;;-4.15;70.73
77086;BME280;66014;53.134;18.006;2024-01-16T05:15:09;99672.55;;;-4.18;70.96
77086;BME280;66014;53.134;18.006;2024-01-16T05:17:37;99669.30;;;-4.21;70.82
77086;BME280;66014;53.134;18.006;2024-01-16T05:20:07;99672.94;;;-4.23;70.92
77086;BME280;66014;53.134;18.006;2024-01-16T05:22:34;99673.38;;;-4.27;70.99
77086;BME280;66014;53.134;18.006;2024-01-16T05:25:01;99677.08;;;-4.30;70.92
77086;BME280;66014;53.134;18.006;2024-01-16T05:27:28;99683.56;;;-4.34;71.04
77086;BME280;66014;53.134;18.006;2024-01-16T05:29:54;99687.79;;;-4.37;71.31
77086;BME280;66014;53.134;18.006;2024-01-16T05:32:21;99688.56;;;-4.41;71.38
77086;BME280;66014;53.134;18.006;2024-01-16T05:34:48;99689.39;;;-4.45;71.55
77086;BME280;66014;53.134;18.006;2024-01-16T05:37:14;99689.38;;;-4.47;71.64
77086;BME280;66014;53.134;18.006;2024-01-16T05:39:41;99698.56;;;-4.50;71.80
77086;BME280;66014;53.134;18.006;2024-01-16T05:42:08;99704.67;;;-4.53;71.87
77086;BME280;66014;53.134;18.006;2024-01-16T05:44:34;99710.13;;;-4.57;71.92
77086;BME280;66014;53.134;18.006;2024-01-16T05:47:01;99712.12;;;-4.61;71.98
77086;BME280;66014;53.134;18.006;2024-01-16T05:49:28;99719.69;;;-4.65;72.19
77086;BME280;66014;53.134;18.006;2024-01-16T05:51:55;99723.60;;;-4.69;72.31
77086;BME280;66014;53.134;18.006;2024-01-16T05:54:21;99727.47;;;-4.72;72.29
77086;BME280;66014;53.134;18.006;2024-01-16T05:56:48;99732.11;;;-4.74;72.60
77086;BME280;66014;53.134;18.006;2024-01-16T05:59:14;99736.30;;;-4.77;72.57
77086;BME280;66014;53.134;18.006;2024-01-16T06:01:41;99733.64;;;-4.79;72.76
77086;BME280;66014;53.134;18.006;2024-01-16T06:04:07;99737.09;;;-4.81;72.67
77086;BME280;66014;53.134;18.006;2024-01-16T06:06:34;99738.99;;;-4.83;72.78
77086;BME280;66014;53.134;18.006;2024-01-16T06:09:00;99744.61;;;-4.85;72.98
77086;BME280;66014;53.134;18.006;2024-01-16T06:11:32;99753.70;;;-4.86;73.03
77086;BME280;66014;53.134;18.006;2024-01-16T06:13:59;99756.52;;;-4.87;73.14
77086;BME280;66014;53.134;18.006;2024-01-16T06:16:27;99761.77;;;-4.88;73.23
77086;BME280;66014;53.134;18.006;2024-01-16T06:19:26;99762.50;;;-4.89;73.13
77086;BME280;66014;53.134;18.006;2024-01-16T06:26:38;99786.36;;;-4.88;73.15
77086;BME280;66014;53.134;18.006;2024-01-16T06:36:40;99794.93;;;-4.87;73.61
77086;BME280;66014;53.134;18.006;2024-01-16T06:39:06;99792.70;;;-4.87;73.32
77086;BME280;66014;53.134;18.006;2024-01-16T06:41:31;99794.98;;;-4.88;73.60
77086;BME280;66014;53.134;18.006;2024-01-16T06:43:57;99801.17;;;-4.90;73.40
77086;BME280;66014;53.134;18.006;2024-01-16T06:46:22;99803.38;;;-4.92;73.69
77086;BME280;66014;53.134;18.006;2024-01-16T06:48:48;99805.77;;;-4.94;73.45
77086;BME280;66014;53.134;18.006;2024-01-16T06:51:14;99811.77;;;-4.96;73.51
77086;BME280;66014;53.134;18.006;2024-01-16T06:53:41;99815.38;;;-4.98;73.89
77086;BME280;66014;53.134;18.006;2024-01-16T06:56:21;99818.30;;;-5.00;73.57
77086;BME280;66014;53.134;18.006;2024-01-16T06:58:48;99824.30;;;-5.02;73.60
77086;BME280;66014;53.134;18.006;2024-01-16T07:01:14;99827.86;;;-5.03;73.49
77086;BME280;66014;53.134;18.006;2024-01-16T07:03:41;99832.20;;;-5.04;73.78
77086;BME280;66014;53.134;18.006;2024-01-16T07:06:07;99838.54;;;-5.03;73.59
77086;BME280;66014;53.134;18.006;2024-01-16T07:08:34;99840.57;;;-5.05;73.32
77086;BME280;66014;53.134;18.006;2024-01-16T07:11:04;99846.25;;;-5.07;73.52
77086;BME280;66014;53.134;18.006;2024-01-16T07:13:34;99848.59;;;-5.08;73.67
77086;BME280;66014;53.134;18.006;2024-01-16T07:16:01;99850.30;;;-5.11;73.67
77086;BME280;66014;53.134;18.006;2024-01-16T07:18:28;99854.59;;;-5.13;73.77
77086;BME280;66014;53.134;18.006;2024-01-16T07:20:54;99859.05;;;-5.12;74.12
77086;BME280;66014;53.134;18.006;2024-01-16T07:23:23;99860.95;;;-5.12;73.92
77086;BME280;66014;53.134;18.006;2024-01-16T07:25:50;99868.33;;;-5.11;74.02
77086;BME280;66014;53.134;18.006;2024-01-16T07:28:17;99874.71;;;-5.11;74.08
77086;BME280;66014;53.134;18.006;2024-01-16T07:30:44;99872.34;;;-5.12;74.23
77086;BME280;66014;53.134;18.006;2024-01-16T07:33:10;99876.16;;;-5.12;74.28
77086;BME280;66014;53.134;18.006;2024-01-16T07:35:37;99879.93;;;-5.12;74.28
77086;BME280;66014;53.134;18.006;2024-01-16T07:38:07;99886.28;;;-5.11;74.32
77086;BME280;66014;53.134;18.006;2024-01-16T07:40:35;99886.14;;;-5.11;74.34
77086;BME280;66014;53.134;18.006;2024-01-16T07:43:01;99885.24;;;-5.11;74.34
77086;BME280;66014;53.134;18.006;2024-01-16T07:45:28;99888.55;;;-5.11;74.49
77086;BME280;66014;53.134;18.006;2024-01-16T07:47:54;99893.55;;;-5.11;74.42
77086;BME280;66014;53.134;18.006;2024-01-16T07:50:21;99897.30;;;-5.10;74.34
77086;BME280;66014;53.134;18.006;2024-01-16T07:52:48;99903.77;;;-5.08;74.26
77086;BME280;66014;53.134;18.006;2024-01-16T07:55:18;99905.16;;;-5.06;74.18
77086;BME280;66014;53.134;18.006;2024-01-16T07:57:45;99903.80;;;-5.04;74.15
77086;BME280;66014;53.134;18.006;2024-01-16T08:00:12;99904.94;;;-5.02;74.27
77086;BME280;66014;53.134;18.006;2024-01-16T08:02:38;99911.33;;;-4.97;74.20
77086;BME280;66014;53.134;18.006;2024-01-16T08:05:05;99915.41;;;-4.93;74.01
77086;BME280;66014;53.134;18.006;2024-01-16T08:07:32;99924.95;;;-4.88;73.88
77086;BME280;66014;53.134;18.006;2024-01-16T08:10:00;99929.48;;;-4.84;73.80
77086;BME280;66014;53.134;18.006;2024-01-16T08:12:27;99931.64;;;-4.77;73.75
77086;BME280;66014;53.134;18.006;2024-01-16T08:14:55;99930.88;;;-4.71;73.65
77086;BME280;66014;53.134;18.006;2024-01-16T08:17:21;99936.91;;;-4.65;73.56
77086;BME280;66014;53.134;18.006;2024-01-16T08:19:50;99943.14;;;-4.60;73.55
77086;BME280;66014;53.134;18.006;2024-01-16T08:22:17;99946.55;;;-4.54;73.44
77086;BME280;66014;53.134;18.006;2024-01-16T08:24:43;99946.33;;;-4.48;73.25
77086;BME280;66014;53.134;18.006;2024-01-16T08:27:10;99941.57;;;-4.41;73.22
77086;BME280;66014;53.134;18.006;2024-01-16T08:29:36;99944.43;;;-4.32;73.12
77086;BME280;66014;53.134;18.006;2024-01-16T08:32:03;99947.70;;;-4.24;72.91
77086;BME280;66014;53.134;18.006;2024-01-16T08:34:30;99953.15;;;-4.13;72.97
77086;BME280;66014;53.134;18.006;2024-01-16T08:36:57;99954.40;;;-4.01;72.65
77086;BME280;66014;53.134;18.006;2024-01-16T08:39:23;99956.95;;;-3.87;72.44
77086;BME280;66014;53.134;18.006;2024-01-16T08:41:54;99956.72;;;-3.74;71.95
77086;BME280;66014;53.134;18.006;2024-01-16T08:44:21;99966.30;;;-3.65;71.67
77086;BME280;66014;53.134;18.006;2024-01-16T08:46:48;99970.23;;;-3.54;71.92
77086;BME280;66014;53.134;18.006;2024-01-16T08:49:16;99972.36;;;-3.40;71.64
77086;BME280;66014;53.134;18.006;2024-01-16T08:51:47;99977.09;;;-3.24;70.86
77086;BME280;66014;53.134;18.006;2024-01-16T08:54:14;99978.31;;;-3.07;70.97
77086;BME280;66014;53.134;18.006;2024-01-16T08:56:41;99981.80;;;-2.88;70.68
77086;BME280;66014;53.134;18.006;2024-01-16T08:59:07;99988.72;;;-2.66;70.18
77086;BME280;66014;53.134;18.006;2024-01-16T09:01:38;99996.45;;;-2.46;69.67
77086;BME280;66014;53.134;18.006;2024-01-16T09:04:10;100000.36;;;-2.24;68.78
77086;BME280;66014;53.134;18.006;2024-01-16T09:06:37;100004.23;;;-2.06;67.83
77086;BME280;66014;53.134;18.006;2024-01-16T09:09:03;100009.05;;;-1.92;67.77
77086;BME280;66014;53.134;18.006;2024-01-16T09:11:31;100015.42;;;-1.73;67.99
77086;BME280;66014;53.134;18.006;2024-01-16T09:14:00;100021.77;;;-1.52;67.25
77086;BME280;66014;53.134;18.006;2024-01-16T09:16:27;100020.54;;;-1.33;66.81
77086;BME280;66014;53.134;18.006;2024-01-16T09:18:53;100014.98;;;-1.11;67.32
77086;BME280;66014;53.134;18.006;2024-01-16T09:21:21;100010.81;;;-0.88;66.46
77086;BME280;66014;53.134;18.006;2024-01-16T09:23:48;100011.44;;;-0.63;65.94
77086;BME280;66014;53.134;18.006;2024-01-16T09:26:16;100024.99;;;-0.48;65.08
77086;BME280;66014;53.134;18.006;2024-01-16T09:28:43;100027.34;;;-0.42;64.21
77086;BME280;66014;53.134;18.006;2024-01-16T09:31:10;100029.64;;;-0.32;65.31
77086;BME280;66014;53.134;18.006;2024-01-16T09:36:15;100034.71;;;-0.11;63.74
77086;BME280;66014;53.134;18.006;2024-01-16T09:50:48;100038.84;;;-0.49;64.22
77086;BME280;66014;53.134;18.006;2024-01-16T09:53:28;100045.05;;;-0.65;64.36
77086;BME280;66014;53.134;18.006;2024-01-16T09:56:18;100044.87;;;-0.76;64.43
77086;BME280;66014;53.134;18.006;2024-01-16T09:59:05;100052.89;;;-0.80;64.48
77086;BME280;66014;53.134;18.006;2024-01-16T10:01:48;100058.83;;;-0.85;65.08
77086;BME280;66014;53.134;18.006;2024-01-16T10:04:29;100058.40;;;-0.75;64.70
77086;BME280;66014;53.134;18.006;2024-01-16T10:06:58;100067.48;;;-0.56;64.74
77086;BME280;66014;53.134;18.006;2024-01-16T10:09:25;100071.84;;;-0.37;64.55
77086;BME280;66014;53.134;18.006;2024-01-16T10:11:52;100075.19;;;-0.22;64.51
77086;BME280;66014;53.134;18.006;2024-01-16T10:14:19;100073.48;;;-0.08;63.87
77086;BME280;66014;53.134;18.006;2024-01-16T10:17:02;100079.02;;;0.12;63.76
77086;BME280;66014;53.134;18.006;2024-01-16T10:19:52;100081.96;;;0.39;64.16
77086;BME280;66014;53.134;18.006;2024-01-16T10:22:23;100083.36;;;0.66;63.11
77086;BME280;66014;53.134;18.006;2024-01-16T10:25:07;100082.70;;;0.86;63.16
77086;BME280;66014;53.134;18.006;2024-01-16T10:27:39;100085.64;;;1.14;63.67
77086;BME280;66014;53.134;18.006;2024-01-16T10:30:07;100084.18;;;1.15;62.93
77086;BME280;66014;53.134;18.006;2024-01-16T10:32:38;100086.95;;;1.05;61.76
77086;BME280;66014;53.134;18.006;2024-01-16T10:35:07;100084.60;;;0.78;62.06
77086;BME280;66014;53.134;18.006;2024-01-16T10:37:47;100091.23;;;0.53;62.48
77086;BME280;66014;53.134;18.006;2024-01-16T10:41:24;100092.41;;;0.35;63.01
77086;BME280;66014;53.134;18.006;2024-01-16T10:51:16;100095.86;;;0.11;62.65
77086;BME280;66014;53.134;18.006;2024-01-16T10:53:43;100090.17;;;0.12;63.40
77086;BME280;66014;53.134;18.006;2024-01-16T11:03:53;100095.86;;;1.05;62.42
77086;BME280;66014;53.134;18.006;2024-01-16T11:06:54;100098.91;;;1.09;62.27
77086;BME280;66014;53.134;18.006;2024-01-16T11:09:20;100101.97;;;0.93;62.71
77086;BME280;66014;53.134;18.006;2024-01-16T11:11:46;100101.52;;;0.86;63.38
77086;BME280;66014;53.134;18.006;2024-01-16T11:14:16;100104.68;;;0.90;62.64
77086;BME280;66014;53.134;18.006;2024-01-16T11:16:42;100109.16;;;0.95;61.51
77086;BME280;66014;53.134;18.006;2024-01-16T11:19:09;100108.59;;;1.02;61.04
77086;BME280;66014;53.134;18.006;2024-01-16T11:21:38;100105.12;;;1.19;61.86
77086;BME280;66014;53.134;18.006;2024-01-16T11:24:04;100103.55;;;1.39;60.27
77086;BME280;66014;53.134;18.006;2024-01-16T11:29:00;100108.95;;;1.57;60.98
77086;BME280;66014;53.134;18.006;2024-01-16T11:31:32;100110.30;;;1.60;60.45
77086;BME280;66014;53.134;18.006;2024-01-16T11:34:00;100114.16;;;1.73;60.26
77086;BME280;66014;53.134;18.006;2024-01-16T11:36:49;100114.70;;;1.87;60.19
77086;BME280;66014;53.134;18.006;2024-01-16T11:42:25;100115.65;;;2.15;58.40
77086;BME280;66014;53.134;18.006;2024-01-16T11:44:56;100114.76;;;2.31;60.28
77086;BME280;66014;53.134;18.006;2024-01-16T11:47:23;100117.11;;;2.49;59.46
77086;BME280;66014;53.134;18.006;2024-01-16T11:50:10;100116.30;;;2.58;59.92
77086;BME280;66014;53.134;18.006;2024-01-16T11:52:41;100114.77;;;2.61;59.41
77086;BME280;66014;53.134;18.006;2024-01-16T11:55:34;100113.61;;;2.60;58.68
77086;BME280;66014;53.134;18.006;2024-01-16T11:58:42;100113.78;;;2.73;57.88
77086;BME280;66014;53.134;18.006;2024-01-16T12:01:16;100108.59;;;2.89;57.21
77086;BME280;66014;53.134;18.006;2024-01-16T12:03:56;100114.52;;;3.04;57.09
77086;BME280;66014;53.134;18.006;2024-01-16T12:06:27;100115.81;;;3.15;56.56
77086;BME280;66014;53.134;18.006;2024-01-16T12:08:53;100117.40;;;3.15;55.47
77086;BME280;66014;53.134;18.006;2024-01-16T12:11:20;100128.26;;;2.83;55.63
77086;BME280;66014;53.134;18.006;2024-01-16T12:14:02;100133.80;;;2.48;55.66
77086;BME280;66014;53.134;18.006;2024-01-16T12:16:31;100132.58;;;2.00;54.56
77086;BME280;66014;53.134;18.006;2024-01-16T12:19:07;100131.35;;;1.55;53.86
77086;BME280;66014;53.134;18.006;2024-01-16T12:21:39;100135.85;;;1.10;54.66
77086;BME280;66014;53.134;18.006;2024-01-16T12:24:16;100135.19;;;0.74;56.96
77086;BME280;66014;53.134;18.006;2024-01-16T12:26:43;100141.20;;;0.51;57.70
77086;BME280;66014;53.134;18.006;2024-01-16T12:29:10;100144.08;;;0.27;56.89
77086;BME280;66014;53.134;18.006;2024-01-16T12:31:38;100144.89;;;0.02;57.86
77086;BME280;66014;53.134;18.006;2024-01-16T12:34:06;100148.25;;;-0.18;58.26
77086;BME280;66014;53.134;18.006;2024-01-16T12:43:58;100153.94;;;-0.54;59.03
77086;BME280;66014;53.134;18.006;2024-01-16T12:46:25;100157.43;;;-0.61;59.34
77086;BME280;66014;53.134;18.006;2024-01-16T12:55:59;100163.54;;;-0.50;59.81
77086;BME280;66014;53.134;18.006;2024-01-16T12:58:34;100166.67;;;-0.48;60.27
77086;BME280;66014;53.134;18.006;2024-01-16T13:03:49;100171.34;;;-0.30;59.78
77086;BME280;66014;53.134;18.006;2024-01-16T13:06:22;100172.31;;;-0.22;59.99
77086;BME280;66014;53.134;18.006;2024-01-16T13:09:08;100176.58;;;-0.19;59.73
77086;BME280;66014;53.134;18.006;2024-01-16T13:11:51;100181.30;;;-0.15;59.86
77086;BME280;66014;53.134;18.006;2024-01-16T13:14:24;100185.67;;;-0.17;59.51
77086;BME280;66014;53.134;18.006;2024-01-16T13:16:53;100186.26;;;-0.16;59.68
77086;BME280;66014;53.134;18.006;2024-01-16T13:19:23;100188.23;;;-0.14;59.88
77086;BME280;66014;53.134;18.006;2024-01-16T13:21:50;100196.08;;;-0.21;59.54
77086;BME280;66014;53.134;18.006;2024-01-16T13:24:17;100195.06;;;-0.30;59.93
77086;BME280;66014;53.134;18.006;2024-01-16T13:26:55;100197.16;;;-0.41;60.26
77086;BME280;66014;53.134;18.006;2024-01-16T13:37:30;100190.48;;;-0.87;60.48
77086;BME280;66014;53.134;18.006;2024-01-16T13:43:43;100186.43;;;-1.13;61.13
77086;BME280;66014;53.134;18.006;2024-01-16T13:49:55;100195.73;;;-1.35;61.16
77086;BME280;66014;53.134;18.006;2024-01-16T13:52:22;100201.60;;;-1.42;61.58
77086;BME280;66014;53.134;18.006;2024-01-16T13:54:51;100202.82;;;-1.48;61.78
77086;BME280;66014;53.134;18.006;2024-01-16T13:57:17;100203.21;;;-1.53;61.70
77086;BME280;66014;53.134;18.006;2024-01-16T13:59:59;100202.89;;;-1.54;61.90
77086;BME280;66014;53.134;18.006;2024-01-16T14:03:09;100204.02;;;-1.53;61.74
77086;BME280;66014;53.134;18.006;2024-01-16T14:05:41;100202.92;;;-1.45;62.03
77086;BME280;66014;53.134;18.006;2024-01-16T14:08:12;100206.23;;;-1.43;62.09
77086;BME280;66014;53.134;18.006;2024-01-16T14:10:39;100208.96;;;-1.47;62.07
77086;BME280;66014;53.134;18.006;2024-01-16T14:13:09;100218.50;;;-1.51;62.35
77086;BME280;66014;53.134;18.006;2024-01-16T14:15:40;100225.44;;;-1.55;62.78
77086;BME280;66014;53.134;18.006;2024-01-16T14:18:41;100224.95;;;-1.58;62.93
77086;BME280;66014;53.134;18.006;2024-01-16T14:21:07;100225.02;;;-1.61;62.82